Time;durP1;ratioP1;P1;durP2;ratioP2;P2;SDS_P1;SDS_P2;PMS_P1;PMS_P2;Temp;Humidity;BMP_temperature;BMP_pressure;BME280_temperature;BME280_humidity;BME280_pressure;Samples;Min_cycle;Max_cycle;Signal;HPM_P1;HPM_P2
2021/12/26 00:01:18;;;;;;;5.95;2.72;;;;;;;7.44;83.91;101208.11;1946409;74;21039;-63
2021/12/26 00:03:47;;;;;;;9.00;3.33;;;;;;;7.44;83.68;101201.56;1946989;74;21011;-64
2021/12/26 00:06:22;;;;;;;7.05;2.83;;;;;;;7.50;83.21;101213.23;1945558;74;21555;-59
2021/12/26 00:09:12;;;;;;;9.95;4.20;;;;;;;7.53;83.22;101215.80;1866936;77;21123;-60
2021/12/26 00:11:41;;;;;;;6.35;2.70;;;;;;;7.54;83.05;101207.03;1837053;78;21035;-61
2021/12/26 00:14:09;;;;;;;8.30;2.40;;;;;;;7.54;82.71;101190.00;1881112;76;21107;-61
2021/12/26 00:16:38;;;;;;;4.72;1.90;;;;;;;7.56;82.35;101219.66;1886415;75;21078;-60
2021/12/26 00:19:07;;;;;;;11.97;3.00;;;;;;;7.57;82.21;101213.98;1898990;75;21148;-60
2021/12/26 00:21:36;;;;;;;12.90;3.52;;;;;;;7.58;82.17;101171.14;1898983;75;21011;-59
2021/12/26 00:24:05;;;;;;;5.22;2.17;;;;;;;7.60;81.94;101140.10;1898969;75;21125;-58
2021/12/26 00:26:36;;;;;;;10.65;2.98;;;;;;;7.64;81.65;101184.15;1899009;75;21434;-58
2021/12/26 00:29:05;;;;;;;5.10;2.45;;;;;;;7.65;81.56;101180.16;1898805;75;21043;-63
2021/12/26 00:31:35;;;;;;;6.55;2.80;;;;;;;7.66;81.23;101155.69;1899028;75;21102;-59
2021/12/26 00:34:05;;;;;;;5.40;1.75;;;;;;;7.72;80.26;101181.77;1898946;75;21530;-60
2021/12/26 00:36:33;;;;;;;8.80;2.30;;;;;;;7.82;80.21;101171.98;1898993;75;21011;-60
2021/12/26 00:39:02;;;;;;;9.43;2.72;;;;;;;7.90;79.56;101155.63;1891409;75;21038;-64
2021/12/26 00:41:31;;;;;;;6.53;2.75;;;;;;;7.96;79.33;101161.19;1880144;76;21046;-63
2021/12/26 00:44:00;;;;;;;6.05;2.33;;;;;;;8.01;79.18;101210.48;1881020;76;21128;-63
2021/12/26 00:46:29;;;;;;;4.78;1.95;;;;;;;8.06;78.72;101182.40;1880945;76;21484;-64
2021/12/26 00:48:58;;;;;;;5.65;2.08;;;;;;;7.96;79.77;101178.23;1881010;76;21469;-61
2021/12/26 00:51:27;;;;;;;7.65;2.15;;;;;;;7.82;81.28;101194.69;1881093;76;21097;-62
2021/12/26 00:53:55;;;;;;;8.60;3.92;;;;;;;7.72;82.00;101180.91;1880919;75;21082;-63
2021/12/26 00:56:24;;;;;;;6.15;2.37;;;;;;;7.65;82.93;101201.59;1880982;76;21582;-62
2021/12/26 00:58:53;;;;;;;8.33;1.62;;;;;;;7.62;83.11;101189.87;1880946;75;21493;-63
2021/12/26 01:01:22;;;;;;;6.53;2.08;;;;;;;7.61;83.54;101182.44;1881045;76;21144;-66
2021/12/26 01:03:50;;;;;;;5.00;1.80;;;;;;;7.61;83.16;101178.50;1881148;76;21539;-61
2021/12/26 01:06:19;;;;;;;6.87;1.95;;;;;;;7.59;83.27;101203.88;1880935;76;21026;-62
2021/12/26 01:08:50;;;;;;;5.65;2.37;;;;;;;7.59;83.17;101196.47;1880871;76;21148;-61
2021/12/26 01:11:49;;;;;;;4.22;1.57;;;;;;;7.55;83.16;101176.02;1881113;76;21083;-62
2021/12/26 01:13:53;;;;;;;6.95;1.57;;;;;;;7.56;82.97;101188.20;1868702;76;21078;-61
2021/12/26 01:16:27;;;;;;;3.83;1.62;;;;;;;7.55;82.84;101168.16;1876164;76;21128;-61
2021/12/26 01:19:03;;;;;;;5.65;2.35;;;;;;;7.55;82.77;101172.08;1880865;76;21155;-63
2021/12/26 01:21:27;;;;;;;4.30;1.65;;;;;;;7.56;82.69;101169.00;1880395;76;21085;-61
2021/12/26 01:24:00;;;;;;;8.13;2.70;;;;;;;7.56;82.61;101155.45;1880286;75;21515;-61
2021/12/26 01:26:30;;;;;;;8.68;2.80;;;;;;;7.60;81.82;101175.48;1881038;76;21042;-64
2021/12/26 01:29:00;;;;;;;5.92;2.00;;;;;;;7.63;81.27;101179.33;1881006;76;21141;-62
2021/12/26 01:31:29;;;;;;;5.75;2.33;;;;;;;7.60;81.17;101195.14;1881026;75;21137;-64
2021/12/26 01:34:09;;;;;;;8.63;2.75;;;;;;;7.56;81.36;101186.89;1878097;76;21541;-63
2021/12/26 01:36:47;;;;;;;4.85;2.08;;;;;;;7.56;81.22;101171.17;1877494;75;21102;-67
2021/12/26 01:39:23;;;;;;;7.45;1.95;;;;;;;7.59;80.83;101187.30;1871485;74;21102;-63
2021/12/26 01:42:01;;;;;;;5.55;2.17;;;;;;;7.60;80.32;101182.45;1865705;76;21216;-62
2021/12/26 01:44:41;;;;;;;6.95;2.50;;;;;;;7.61;80.72;101175.03;1809054;76;21073;-63
2021/12/26 01:47:11;;;;;;;5.40;2.27;;;;;;;7.60;80.70;101178.53;1867510;76;21070;-63
2021/12/26 01:49:40;;;;;;;9.00;1.77;;;;;;;7.61;80.17;101160.61;1867889;77;21140;-62
2021/12/26 01:52:09;;;;;;;3.90;1.95;;;;;;;7.61;80.14;101162.78;1867886;77;21141;-64
2021/12/26 01:54:49;;;;;;;7.58;2.45;;;;;;;7.61;80.32;101171.95;1867823;76;21543;-62
2021/12/26 01:57:17;;;;;;;6.33;2.52;;;;;;;7.59;80.48;101168.50;1867651;76;21485;-63
2021/12/26 01:59:48;;;;;;;5.60;2.00;;;;;;;7.59;80.31;101180.75;1867834;77;21675;-63
2021/12/26 02:02:18;;;;;;;5.97;1.90;;;;;;;7.58;80.26;101186.45;1866581;76;21094;-63
2021/12/26 02:04:47;;;;;;;5.17;2.42;;;;;;;7.54;80.42;101171.66;1867881;77;21095;-66
2021/12/26 02:07:16;;;;;;;4.67;2.47;;;;;;;7.54;80.47;101183.02;1868084;77;21035;-62
2021/12/26 02:09:46;;;;;;;5.15;2.00;;;;;;;7.52;80.60;101187.43;1862205;77;21600;-62
2021/12/26 02:12:16;;;;;;;4.65;2.10;;;;;;;7.50;80.62;101168.68;1859581;77;21121;-62
2021/12/26 02:14:45;;;;;;;4.97;2.05;;;;;;;7.52;80.52;101183.92;1859858;77;21563;-62
2021/12/26 02:17:32;;;;;;;5.53;2.37;;;;;;;7.53;80.38;101194.84;1859817;77;21125;-63
2021/12/26 02:20:15;;;;;;;6.28;2.67;;;;;;;7.50;80.51;101177.85;1859757;77;21118;-62
2021/12/26 02:22:48;;;;;;;4.90;1.87;;;;;;;7.48;80.60;101180.95;1870824;75;21113;-61
2021/12/26 02:25:30;;;;;;;4.50;1.92;;;;;;;7.46;80.98;101166.56;1859480;77;21113;-62
2021/12/26 02:27:46;;;;;;;7.35;2.35;;;;;;;7.45;81.11;101155.69;1855073;77;21039;-63
2021/12/26 02:30:16;;;;;;;9.63;2.17;;;;;;;7.44;81.20;101189.31;1859846;77;21086;-66
2021/12/26 02:32:48;;;;;;;10.00;3.70;;;;;;;7.48;81.03;101162.61;1859551;77;21359;-63
2021/12/26 02:35:19;;;;;;;5.60;2.30;;;;;;;7.47;81.10;101147.34;1859827;77;21135;-63
2021/12/26 02:37:49;;;;;;;6.85;2.40;;;;;;;7.44;81.18;101157.02;1859889;77;21047;-63
2021/12/26 02:40:18;;;;;;;6.17;2.30;;;;;;;7.43;81.44;101155.28;1855849;77;21136;-65
2021/12/26 02:42:48;;;;;;;11.75;2.62;;;;;;;7.42;81.49;101156.19;1855792;77;21066;-66
2021/12/26 02:45:18;;;;;;;4.47;2.42;;;;;;;7.46;81.50;101140.82;1855638;76;21469;-66
2021/12/26 02:47:49;;;;;;;6.87;2.83;;;;;;;7.52;81.41;101155.98;1855651;76;21046;-67
2021/12/26 02:50:24;;;;;;;4.87;2.30;;;;;;;7.56;81.48;101135.80;1855663;77;21039;-68
2021/12/26 02:52:55;;;;;;;10.38;3.92;;;;;;;7.58;81.36;101136.66;1855592;77;21117;-69
2021/12/26 02:55:24;;;;;;;7.35;2.52;;;;;;;7.62;81.27;101124.35;1809762;79;21046;-68
2021/12/26 02:57:55;;;;;;;5.75;2.55;;;;;;;7.64;81.40;101122.10;1809849;79;21117;-68
2021/12/26 03:00:28;;;;;;;6.42;2.42;;;;;;;7.68;81.37;101114.58;1809878;79;21079;-67
2021/12/26 03:02:59;;;;;;;9.30;3.22;;;;;;;7.70;81.19;101133.76;1809667;79;21102;-66
2021/12/26 03:05:32;;;;;;;7.33;3.05;;;;;;;7.69;81.06;101129.43;1809575;78;21200;-63
2021/12/26 03:08:01;;;;;;;6.25;2.50;;;;;;;7.68;81.14;101132.93;1809623;79;21051;-62
2021/12/26 03:10:30;;;;;;;5.95;2.35;;;;;;;7.68;80.81;101119.83;1815575;78;21082;-63
2021/12/26 03:13:02;;;;;;;7.92;3.08;;;;;;;7.69;80.87;101141.23;1817779;78;21034;-64
2021/12/26 03:15:32;;;;;;;4.40;2.27;;;;;;;7.69;80.33;101107.15;1817547;79;21046;-66
2021/12/26 03:18:02;;;;;;;7.60;3.17;;;;;;;7.72;80.17;101138.97;1817749;79;21097;-65
2021/12/26 03:20:34;;;;;;;5.17;2.42;;;;;;;7.71;80.17;101143.81;1817658;79;21058;-65
2021/12/26 03:23:03;;;;;;;6.35;2.40;;;;;;;7.69;80.24;101142.53;1813159;79;21054;-65
2021/12/26 03:25:33;;;;;;;7.60;2.27;;;;;;;7.65;80.53;101127.74;1817644;78;21078;-65
2021/12/26 03:28:04;;;;;;;11.43;2.98;;;;;;;7.65;80.41;101139.99;1817695;78;21083;-66
2021/12/26 03:30:34;;;;;;;4.67;2.62;;;;;;;7.68;80.17;101125.52;1817709;79;21054;-65
2021/12/26 03:33:06;;;;;;;7.20;2.62;;;;;;;7.74;79.55;101111.82;1817701;78;21140;-65
2021/12/26 03:35:36;;;;;;;3.87;2.25;;;;;;;7.78;79.40;101113.08;1817628;78;21086;-67
2021/12/26 03:38:06;;;;;;;8.23;3.65;;;;;;;7.77;79.44;101137.59;1817691;78;21066;-68
2021/12/26 03:40:47;;;;;;;5.33;2.98;;;;;;;7.81;78.62;101152.34;1857763;77;21058;-65
2021/12/26 03:43:16;;;;;;;10.25;2.60;;;;;;;7.89;78.22;101101.91;1835378;78;21050;-64
2021/12/26 03:45:53;;;;;;;4.75;2.80;;;;;;;7.95;78.12;101159.48;1835349;77;21489;-64
2021/12/26 03:48:20;;;;;;;3.57;1.83;;;;;;;8.00;77.68;101132.69;1868576;77;21156;-63
2021/12/26 03:50:50;;;;;;;5.95;3.27;;;;;;;8.05;77.83;101131.28;1835261;78;21062;-64
2021/12/26 03:53:19;;;;;;;9.45;3.02;;;;;;;8.09;77.61;101111.49;1835173;77;21145;-61
2021/12/26 03:55:48;;;;;;;6.42;2.50;;;;;;;8.16;77.19;101119.25;1835401;77;21093;-61
2021/12/26 03:58:19;;;;;;;3.87;2.27;;;;;;;8.17;77.25;101141.94;1835472;77;21172;-61
2021/12/26 04:00:50;;;;;;;8.88;3.12;;;;;;;8.18;76.99;101129.25;1835329;78;21102;-61
2021/12/26 04:03:19;;;;;;;6.70;2.60;;;;;;;8.19;76.94;101123.09;1835309;78;21023;-65
2021/12/26 04:05:50;;;;;;;3.77;2.65;;;;;;;8.21;76.61;101135.75;1867436;77;21504;-66
2021/12/26 04:08:19;;;;;;;7.53;2.40;;;;;;;8.23;76.16;101133.95;1835364;78;21572;-67
2021/12/26 04:10:49;;;;;;;5.47;2.65;;;;;;;8.23;76.16;101136.11;1829491;78;21600;-61
2021/12/26 04:13:18;;;;;;;9.10;3.05;;;;;;;8.25;76.12;101129.53;1901884;75;21082;-62
2021/12/26 04:15:47;;;;;;;7.50;2.70;;;;;;;8.27;76.31;101131.66;1901924;75;21059;-62
2021/12/26 04:18:16;;;;;;;6.08;2.67;;;;;;;8.25;76.22;101131.69;1901758;75;21059;-63
2021/12/26 04:20:45;;;;;;;5.53;2.25;;;;;;;8.29;75.24;101129.86;1901994;75;21027;-61
2021/12/26 04:23:16;;;;;;;8.58;3.30;;;;;;;8.28;75.66;101140.81;1901691;75;21554;-65
2021/12/26 04:25:45;;;;;;;7.50;3.10;;;;;;;8.29;75.46;101130.72;1901809;75;21668;-62
2021/12/26 04:28:17;;;;;;;8.65;3.95;;;;;;;8.30;75.38;101136.84;1901821;75;21477;-63
2021/12/26 04:30:47;;;;;;;4.65;2.77;;;;;;;8.32;75.37;101140.30;1901670;75;21063;-62
2021/12/26 04:33:16;;;;;;;6.45;2.70;;;;;;;8.31;75.53;101150.36;1901974;75;21031;-62
2021/12/26 04:35:45;;;;;;;7.70;2.75;;;;;;;8.31;75.72;101146.42;1901803;75;21023;-62
2021/12/26 04:38:14;;;;;;;9.58;3.08;;;;;;;8.31;75.64;101156.46;1901744;75;21035;-61
2021/12/26 04:40:43;;;;;;;7.67;4.10;;;;;;;8.32;75.74;101144.23;1900855;75;21132;-61
2021/12/26 04:43:15;;;;;;;13.48;4.28;;;;;;;8.34;75.73;101156.86;1903010;73;21465;-62
2021/12/26 04:45:48;;;;;;;14.13;3.35;;;;;;;8.35;75.52;101142.83;1902230;73;21172;-61
2021/12/26 04:48:36;;;;;;;8.15;3.00;;;;;;;8.37;75.59;101157.23;1900801;75;21104;-61
2021/12/26 04:51:07;;;;;;;5.37;2.42;;;;;;;8.37;75.50;101148.05;1900883;75;20994;-61
2021/12/26 04:53:37;;;;;;;7.25;2.90;;;;;;;8.41;74.72;101161.08;1900756;75;21092;-64
2021/12/26 04:56:08;;;;;;;6.30;2.92;;;;;;;8.44;74.87;101158.39;1901046;75;21019;-61
2021/12/26 04:58:37;;;;;;;7.78;3.08;;;;;;;8.44;74.95;101151.83;1900919;75;20995;-64
2021/12/26 05:01:06;;;;;;;11.35;3.98;;;;;;;8.43;75.06;101140.94;1900873;75;21518;-63
2021/12/26 05:03:35;;;;;;;6.08;2.77;;;;;;;8.43;75.13;101160.62;1901097;75;21522;-64
2021/12/26 05:06:04;;;;;;;8.90;3.95;;;;;;;8.44;74.78;101170.66;1900816;75;20994;-65
2021/12/26 05:08:32;;;;;;;5.55;3.37;;;;;;;8.42;74.35;101169.37;1900899;75;21437;-67
2021/12/26 05:11:03;;;;;;;7.30;3.60;;;;;;;8.44;74.58;101171.51;1891275;75;21548;-64
2021/12/26 05:13:32;;;;;;;7.55;3.47;;;;;;;8.44;74.50;101187.25;1866944;77;21066;-63
2021/12/26 05:16:01;;;;;;;7.87;3.52;;;;;;;8.45;74.24;101186.37;1866891;77;21010;-61
2021/12/26 05:18:30;;;;;;;7.40;3.22;;;;;;;8.49;74.18;101189.79;1866950;77;21562;-61
2021/12/26 05:21:00;;;;;;;7.35;3.37;;;;;;;8.48;74.09;101188.94;1866939;75;21136;-62
2021/12/26 05:23:29;;;;;;;10.18;5.35;;;;;;;8.48;73.98;101210.36;1867134;76;21528;-62
2021/12/26 05:25:58;;;;;;;12.80;5.00;;;;;;;8.49;74.24;101211.64;1867101;76;21448;-62
2021/12/26 05:28:28;;;;;;;8.73;3.80;;;;;;;8.52;74.06;101191.04;1867832;75;21182;-62
2021/12/26 05:30:58;;;;;;;7.50;2.87;;;;;;;8.59;74.09;101190.42;1866942;77;21063;-63
2021/12/26 05:33:28;;;;;;;8.20;3.70;;;;;;;8.64;74.09;101199.06;1867312;75;21144;-63
2021/12/26 05:35:59;;;;;;;9.30;3.98;;;;;;;8.69;73.53;101205.08;1867108;75;21171;-64
2021/12/26 05:38:29;;;;;;;9.78;4.30;;;;;;;8.72;73.33;101197.10;1867151;77;21074;-66
2021/12/26 05:40:58;;;;;;;10.78;3.67;;;;;;;8.74;73.20;101186.57;1867792;77;21070;-66
2021/12/26 05:43:27;;;;;;;8.15;3.65;;;;;;;8.75;73.05;101198.35;1850844;77;21449;-66
2021/12/26 05:45:57;;;;;;;9.18;4.05;;;;;;;8.79;72.88;101173.73;1867828;76;21683;-66
2021/12/26 05:48:26;;;;;;;6.03;3.65;;;;;;;8.82;72.72;101182.02;1867965;76;21145;-66
2021/12/26 05:50:55;;;;;;;8.53;3.20;;;;;;;8.85;72.59;101199.87;1867850;77;21149;-62
2021/12/26 05:53:40;;;;;;;9.73;3.35;;;;;;;8.92;72.76;101206.27;1811130;79;21102;-62
2021/12/26 05:56:10;;;;;;;10.00;3.92;;;;;;;8.97;72.54;101201.77;1849253;76;21050;-61
2021/12/26 05:58:39;;;;;;;10.05;3.33;;;;;;;9.07;71.55;101184.86;1867985;77;21114;-60
2021/12/26 06:01:09;;;;;;;7.53;3.20;;;;;;;9.40;70.82;101170.43;1867862;76;21122;-61
2021/12/26 06:03:38;;;;;;;8.63;3.87;;;;;;;9.71;70.16;101190.63;1867890;77;21054;-60
2021/12/26 06:06:07;;;;;;;9.75;4.35;;;;;;;10.01;69.15;101188.43;1867954;77;21506;-60
2021/12/26 06:08:37;;;;;;;8.48;2.87;;;;;;;10.02;69.08;101188.82;1867487;76;21099;-65
2021/12/26 06:11:09;;;;;;;9.70;3.12;;;;;;;9.98;69.13;101196.41;1868951;75;21055;-63
2021/12/26 06:13:38;;;;;;;9.73;3.50;;;;;;;9.84;69.13;101192.84;1913770;74;21112;-61
2021/12/26 06:16:06;;;;;;;3.42;1.98;;;;;;;9.71;69.55;101215.14;1913691;75;21059;-62
2021/12/26 06:18:36;;;;;;;8.25;3.22;;;;;;;9.62;70.27;101203.10;1913888;74;21520;-65
2021/12/26 06:21:23;;;;;;;8.15;3.17;;;;;;;9.60;70.27;101204.06;1913602;75;21048;-63
2021/12/26 06:23:57;;;;;;;9.20;3.87;;;;;;;9.78;70.22;101218.02;1882317;74;21500;-63
2021/12/26 06:26:43;;;;;;;7.75;3.58;;;;;;;9.94;69.40;101194.78;1913687;75;21603;-65
2021/12/26 06:29:14;;;;;;;8.73;3.70;;;;;;;10.14;69.02;101204.69;1912154;74;21061;-62
2021/12/26 06:31:44;;;;;;;6.42;2.83;;;;;;;10.31;68.19;101201.61;1913510;74;21473;-61
2021/12/26 06:34:31;;;;;;;10.23;3.45;;;;;;;10.50;67.74;101189.19;1913743;75;21119;-62
2021/12/26 06:37:18;;;;;;;11.10;3.77;;;;;;;10.68;67.92;101204.83;1913698;75;21091;-61
2021/12/26 06:40:07;;;;;;;4.97;2.87;;;;;;;10.73;67.76;101184.48;1860276;75;21120;-62
2021/12/26 06:42:53;;;;;;;6.72;2.83;;;;;;;10.78;66.96;101199.22;1849553;77;21070;-62
2021/12/26 06:45:27;;;;;;;7.22;3.17;;;;;;;11.15;66.33;101225.67;1831235;77;21069;-63
2021/12/26 06:48:14;;;;;;;10.13;3.30;;;;;;;11.55;65.12;101223.45;1849527;77;21066;-69
2021/12/26 06:50:46;;;;;;;5.40;2.52;;;;;;;11.58;65.11;101230.80;1849557;77;21152;-64
2021/12/26 06:53:15;;;;;;;5.10;2.02;;;;;;;11.56;65.29;101204.95;1849754;77;21120;-64
2021/12/26 06:55:45;;;;;;;7.50;2.92;;;;;;;11.34;65.48;101216.70;1849632;77;21049;-64
2021/12/26 06:58:15;;;;;;;6.50;2.65;;;;;;;11.23;65.60;101216.65;1849601;77;21054;-63
2021/12/26 07:00:44;;;;;;;7.95;3.12;;;;;;;11.24;65.57;101219.23;1849655;77;21143;-65
2021/12/26 07:03:13;;;;;;;8.45;2.83;;;;;;;11.48;64.85;101203.02;1849799;77;21086;-63
2021/12/26 07:05:42;;;;;;;9.95;2.90;;;;;;;11.67;64.85;101219.04;1849779;77;21521;-63
2021/12/26 07:08:13;;;;;;;5.65;2.80;;;;;;;12.25;63.47;101217.85;1849562;77;21077;-63
2021/12/26 07:10:44;;;;;;;9.40;3.00;;;;;;;12.62;60.99;101249.44;1849313;76;21465;-62
2021/12/26 07:13:13;;;;;;;9.83;3.83;;;;;;;12.73;60.32;101193.91;1885819;74;21050;-62
2021/12/26 07:15:44;;;;;;;6.83;3.22;;;;;;;12.85;60.61;101227.36;1909923;73;21144;-62
2021/12/26 07:18:13;;;;;;;7.25;2.92;;;;;;;12.62;59.26;101217.27;1909744;75;21089;-61
2021/12/26 07:20:42;;;;;;;6.37;3.15;;;;;;;12.73;59.65;101193.05;1909585;75;21046;-62
2021/12/26 07:23:29;;;;;;;6.53;2.70;;;;;;;12.52;59.98;101222.06;1909578;75;21046;-61
2021/12/26 07:25:59;;;;;;;7.95;2.98;;;;;;;12.18;60.45;101214.57;1909744;74;21153;-60
2021/12/26 07:28:29;;;;;;;10.05;3.37;;;;;;;12.10;61.03;101211.38;1909795;75;21398;-60
2021/12/26 07:31:11;;;;;;;10.88;3.25;;;;;;;11.84;61.13;101227.69;1910254;73;21533;-60
2021/12/26 07:33:41;;;;;;;11.03;3.75;;;;;;;11.44;62.17;101238.33;1909557;75;21089;-62
2021/12/26 07:36:10;;;;;;;8.78;3.30;;;;;;;11.15;62.98;101236.21;1909450;75;21011;-62
2021/12/26 07:38:58;;;;;;;7.58;3.12;;;;;;;10.95;63.67;101238.66;1913040;73;21520;-62
2021/12/26 07:41:28;;;;;;;6.87;2.85;;;;;;;10.80;64.17;101239.55;1916723;75;21106;-61
2021/12/26 07:43:58;;;;;;;13.53;3.25;;;;;;;10.72;64.83;101238.09;1916909;75;21469;-61
2021/12/26 07:46:45;;;;;;;6.08;3.33;;;;;;;10.64;65.08;101239.62;1916765;75;21127;-61
2021/12/26 07:49:23;;;;;;;9.85;3.77;;;;;;;10.56;65.45;101229.80;1916960;75;21094;-63
2021/12/26 07:52:18;;;;;;;9.20;3.00;;;;;;;10.50;65.25;101239.21;1916770;75;21156;-62
2021/12/26 07:54:58;;;;;;;5.72;2.85;;;;;;;10.47;65.59;101230.08;1916698;75;21544;-63
2021/12/26 07:57:48;;;;;;;6.90;3.08;;;;;;;10.47;65.94;101231.39;1916822;75;21179;-60
2021/12/26 08:00:35;;;;;;;6.87;2.60;;;;;;;10.48;66.15;101225.23;1916776;75;21069;-59
2021/12/26 08:03:05;;;;;;;7.45;2.72;;;;;;;10.48;66.15;101239.72;1916004;75;21168;-59
2021/12/26 08:05:52;;;;;;;7.55;2.77;;;;;;;10.47;65.75;101231.39;1916909;75;21477;-60
2021/12/26 08:08:36;;;;;;;7.00;3.22;;;;;;;10.47;65.70;101245.41;1914217;75;21560;-59
2021/12/26 08:11:05;;;;;;;14.03;3.27;;;;;;;10.46;64.86;101208.16;1916953;75;21046;-59
2021/12/26 08:13:34;;;;;;;6.12;2.58;;;;;;;10.48;65.20;101217.34;1911235;75;21068;-60
2021/12/26 08:16:03;;;;;;;7.12;2.80;;;;;;;10.50;65.22;101227.36;1904792;75;21153;-60
2021/12/26 08:18:31;;;;;;;8.48;2.92;;;;;;;10.53;64.86;101211.45;1904970;75;21019;-59
2021/12/26 08:21:00;;;;;;;6.28;2.58;;;;;;;10.59;64.87;101236.30;1904959;75;21042;-60
2021/12/26 08:23:29;;;;;;;6.05;2.83;;;;;;;10.64;64.35;101206.70;1904896;75;21054;-62
2021/12/26 08:25:59;;;;;;;3.87;2.33;;;;;;;10.65;64.44;101216.34;1905048;75;21082;-62
2021/12/26 08:28:27;;;;;;;5.42;1.87;;;;;;;10.69;64.68;101221.91;1904734;75;21759;-61
2021/12/26 08:30:56;;;;;;;8.88;3.47;;;;;;;10.71;64.47;101216.13;1904761;75;21123;-61
2021/12/26 08:33:25;;;;;;;7.90;3.35;;;;;;;10.72;64.73;101228.41;1904855;75;21543;-62
2021/12/26 08:35:54;;;;;;;6.75;3.10;;;;;;;10.70;64.48;101207.84;1905027;75;21071;-63
2021/12/26 08:38:23;;;;;;;7.25;3.10;;;;;;;10.67;64.25;101215.83;1906473;75;21470;-61
2021/12/26 08:40:54;;;;;;;9.18;2.67;;;;;;;10.66;64.24;101197.44;1918323;75;21528;-62
2021/12/26 08:43:24;;;;;;;8.90;3.08;;;;;;;10.73;64.16;101206.41;1918396;75;21096;-60
2021/12/26 08:45:53;;;;;;;10.68;3.22;;;;;;;10.69;64.13;101211.84;1887058;72;21106;-61
2021/12/26 08:48:22;;;;;;;8.20;3.58;;;;;;;10.65;64.25;101204.48;1828712;77;21594;-61
2021/12/26 08:50:55;;;;;;;5.35;2.35;;;;;;;10.62;64.32;101213.80;1828675;78;21085;-61
2021/12/26 08:53:21;;;;;;;10.43;3.27;;;;;;;10.62;64.17;101213.80;1828186;78;21073;-59
2021/12/26 08:55:50;;;;;;;4.97;1.62;;;;;;;10.64;63.82;101206.70;1828636;78;21073;-62
2021/12/26 08:58:19;;;;;;;9.50;3.05;;;;;;;10.67;63.94;101201.34;1828801;78;21544;-58
2021/12/26 09:00:48;;;;;;;6.20;2.45;;;;;;;10.66;63.96;101204.91;1828707;77;21554;-59
2021/12/26 09:03:18;;;;;;;8.65;3.87;;;;;;;10.68;64.38;101196.50;1828726;78;21058;-58
2021/12/26 09:05:47;;;;;;;7.53;2.75;;;;;;;10.72;63.84;101177.51;1828720;78;21034;-58
2021/12/26 09:08:15;;;;;;;6.28;3.22;;;;;;;10.78;63.98;101193.95;1828655;78;21507;-60
2021/12/26 09:10:44;;;;;;;6.85;2.85;;;;;;;10.86;63.99;101186.27;1828655;78;21169;-58
2021/12/26 09:13:13;;;;;;;12.35;3.25;;;;;;;10.90;64.01;101193.14;1828906;78;21496;-59
2021/12/26 09:15:42;;;;;;;8.10;3.22;;;;;;;10.96;64.41;101203.50;1828710;78;21081;-59
2021/12/26 09:18:10;;;;;;;8.20;3.30;;;;;;;10.95;64.20;101192.55;1828667;78;21136;-58
2021/12/26 09:20:39;;;;;;;3.75;2.80;;;;;;;10.96;64.21;101190.33;1828811;78;21070;-59
2021/12/26 09:23:08;;;;;;;8.65;3.50;;;;;;;11.07;64.49;101184.23;1828754;78;21074;-58
2021/12/26 09:25:37;;;;;;;6.50;2.75;;;;;;;11.14;63.78;101179.16;1828669;78;21160;-58
2021/12/26 09:28:06;;;;;;;8.50;2.25;;;;;;;11.25;63.58;101184.50;1828755;78;21082;-58
2021/12/26 09:30:38;;;;;;;10.30;4.10;;;;;;;11.41;63.76;101169.87;1828706;78;21074;-58
2021/12/26 09:33:07;;;;;;;8.80;3.77;;;;;;;11.49;62.48;101140.14;1828681;78;21465;-60
2021/12/26 09:35:36;;;;;;;11.57;3.92;;;;;;;11.59;62.23;101166.56;1828884;78;21186;-59
2021/12/26 09:38:05;;;;;;;8.53;3.50;;;;;;;11.59;62.86;101160.44;1828731;78;21505;-59
2021/12/26 09:40:34;;;;;;;6.45;2.98;;;;;;;11.58;62.08;101166.62;1828606;77;21077;-60
2021/12/26 09:43:03;;;;;;;8.05;3.17;;;;;;;11.50;62.52;101157.67;1828820;78;21066;-60
2021/12/26 09:45:32;;;;;;;7.05;3.52;;;;;;;11.48;62.81;101170.05;1828771;78;21101;-61
2021/12/26 09:48:01;;;;;;;8.78;3.25;;;;;;;11.43;62.73;101154.84;1833817;78;21070;-61
2021/12/26 09:50:29;;;;;;;4.17;2.65;;;;;;;11.37;62.78;101141.90;1834824;78;21042;-59
2021/12/26 09:52:58;;;;;;;10.20;3.85;;;;;;;11.35;63.13;101149.01;1834787;78;21148;-59
2021/12/26 09:55:29;;;;;;;8.28;2.85;;;;;;;11.34;63.24;101134.09;1833353;77;21128;-69
2021/12/26 09:57:58;;;;;;;7.53;2.90;;;;;;;11.34;63.28;101164.41;1804644;79;21069;-60
2021/12/26 10:00:39;;;;;;;9.28;3.45;;;;;;;11.28;63.42;101154.09;1804505;79;21496;-59
2021/12/26 10:03:17;;;;;;;8.78;3.77;;;;;;;11.28;63.54;101164.63;1823297;78;21552;-60
2021/12/26 10:06:12;;;;;;;6.90;3.40;;;;;;;11.27;63.42;101158.95;1834370;77;21054;-61
2021/12/26 10:08:55;;;;;;;6.80;2.77;;;;;;;11.25;63.42;101159.45;1834511;78;21476;-61
2021/12/26 10:11:29;;;;;;;7.33;3.33;;;;;;;11.19;64.39;101149.99;1834543;77;21505;-61
2021/12/26 10:14:09;;;;;;;9.90;3.15;;;;;;;11.12;64.69;101183.63;1834767;78;21034;-61
2021/12/26 10:16:41;;;;;;;8.45;3.33;;;;;;;11.05;64.84;101151.80;1834731;78;21492;-61
2021/12/26 10:19:10;;;;;;;7.87;3.22;;;;;;;11.04;65.02;101168.52;1840177;77;21046;-61
2021/12/26 10:21:45;;;;;;;8.38;3.17;;;;;;;11.04;65.11;101160.61;1846562;77;21061;-62
2021/12/26 10:24:25;;;;;;;5.47;1.80;;;;;;;11.01;65.03;101141.83;1860494;76;21116;-61
2021/12/26 10:27:06;;;;;;;6.30;2.58;;;;;;;11.02;65.12;101163.76;1864561;77;21495;-60
2021/12/26 10:29:40;;;;;;;7.20;2.77;;;;;;;11.04;64.93;101161.92;1865706;77;21447;-61
2021/12/26 10:32:15;;;;;;;5.78;3.00;;;;;;;11.00;65.06;101156.36;1865658;77;21147;-60
2021/12/26 10:34:52;;;;;;;7.12;3.12;;;;;;;11.03;65.25;101152.75;1833046;78;21199;-64
2021/12/26 10:37:38;;;;;;;6.47;2.67;;;;;;;11.00;64.95;101133.50;1834818;78;21101;-64
2021/12/26 10:40:14;;;;;;;3.55;2.05;;;;;;;10.99;65.17;101158.58;1834697;78;21129;-64
2021/12/26 10:42:48;;;;;;;7.92;2.98;;;;;;;10.97;65.35;101159.09;1834894;78;21062;-65
2021/12/26 10:45:20;;;;;;;5.97;2.72;;;;;;;11.01;65.58;101171.25;1834826;77;21058;-63
2021/12/26 10:47:58;;;;;;;7.62;3.33;;;;;;;11.04;65.70;101160.61;1834565;78;21082;-62
2021/12/26 10:50:29;;;;;;;6.35;3.20;;;;;;;10.99;65.24;101168.69;1834502;77;21057;-60
2021/12/26 10:53:00;;;;;;;14.07;3.92;;;;;;;10.92;65.40;101206.69;1831468;78;21062;-66
2021/12/26 10:55:31;;;;;;;7.15;3.33;;;;;;;10.86;65.80;101171.77;1834605;78;21030;-62
2021/12/26 10:58:06;;;;;;;6.90;3.30;;;;;;;10.84;66.32;101168.33;1828839;78;21503;-61
2021/12/26 11:00:46;;;;;;;6.70;3.40;;;;;;;10.78;66.55;101183.42;1834729;78;21038;-62
2021/12/26 11:03:22;;;;;;;6.78;3.40;;;;;;;10.79;67.01;101176.41;1834619;78;21124;-64
2021/12/26 11:05:53;;;;;;;6.95;3.25;;;;;;;10.76;67.15;101177.34;1834780;77;21070;-63
2021/12/26 11:08:35;;;;;;;7.25;4.00;;;;;;;10.75;67.35;101176.95;1834846;77;21108;-62
2021/12/26 11:11:16;;;;;;;10.38;3.05;;;;;;;10.75;67.49;101180.91;1834869;78;21101;-60
2021/12/26 11:13:43;;;;;;;6.97;3.55;;;;;;;10.71;67.61;101179.26;1834814;78;21109;-61
2021/12/26 11:16:15;;;;;;;6.22;4.12;;;;;;;10.67;67.63;101180.28;1834975;77;21120;-61
2021/12/26 11:18:44;;;;;;;9.15;3.17;;;;;;;10.62;67.68;101171.66;1834804;78;21183;-62
2021/12/26 11:21:15;;;;;;;8.30;3.80;;;;;;;10.62;67.95;101178.23;1834691;78;21999;-62
2021/12/26 11:23:45;;;;;;;6.62;3.62;;;;;;;10.61;68.20;101177.39;1834729;78;21098;-64
2021/12/26 11:26:19;;;;;;;7.22;3.75;;;;;;;10.60;68.16;101161.63;1834795;78;21531;-64
2021/12/26 11:28:51;;;;;;;10.70;4.72;;;;;;;10.59;67.94;101185.80;1834842;77;21058;-64
2021/12/26 11:31:23;;;;;;;10.65;3.60;;;;;;;10.61;68.02;101173.91;1834825;78;21065;-65
2021/12/26 11:33:56;;;;;;;8.55;4.30;;;;;;;10.60;68.07;101178.75;1833743;77;21062;-63
2021/12/26 11:36:24;;;;;;;6.92;3.67;;;;;;;10.57;67.87;101167.88;1834521;77;21224;-64
2021/12/26 11:38:55;;;;;;;8.43;3.98;;;;;;;10.57;68.10;101169.66;1832021;78;21085;-65
2021/12/26 11:42:00;;;;;;;9.05;3.85;;;;;;;10.55;68.26;101180.66;1824411;78;21196;-64
2021/12/26 11:45:08;;;;;;;;;;;;;;;10.53;68.44;101181.17;1839282;77;21140;-63
2021/12/26 11:48:22;;;;;;;10.23;3.90;;;;;;;10.51;68.72;101168.52;1834673;78;20171;-64
2021/12/26 11:51:14;;;;;;;6.97;3.87;;;;;;;10.46;68.88;101181.84;1825955;77;21160;-63
2021/12/26 11:54:20;;;;;;;10.05;3.42;;;;;;;10.42;68.96;101164.39;1833113;78;21574;-61